sensor_id;sensor_type;location;lat;lon;timestamp;P1;durP1;ratioP1;P2;durP2;ratioP2
47896;SDS011;39629;51.400;5.494;2022-12-18T00:04:13;32.30;;;10.82;;
47896;SDS011;39629;51.400;5.494;2022-12-18T00:09:21;32.03;;;11.02;;
47896;SDS011;39629;51.400;5.494;2022-12-18T00:14:23;29.10;;;10.02;;
47896;SDS011;39629;51.400;5.494;2022-12-18T00:19:24;25.73;;;9.75;;
47896;SDS011;39629;51.400;5.494;2022-12-18T00:24:27;27.33;;;10.77;;
47896;SDS011;39629;51.400;5.494;2022-12-18T00:29:29;28.90;;;10.77;;
47896;SDS011;39629;51.400;5.494;2022-12-18T00:34:31;29.83;;;9.85;;
47896;SDS011;39629;51.400;5.494;2022-12-18T00:39:34;29.90;;;9.65;;
47896;SDS011;39629;51.400;5.494;2022-12-18T00:44:35;28.30;;;10.00;;
47896;SDS011;39629;51.400;5.494;2022-12-18T00:49:37;26.83;;;9.73;;
47896;SDS011;39629;51.400;5.494;2022-12-18T00:54:40;29.73;;;10.50;;
47896;SDS011;39629;51.400;5.494;2022-12-18T00:59:42;23.73;;;8.27;;
47896;SDS011;39629;51.400;5.494;2022-12-18T01:04:45;25.95;;;8.43;;
47896;SDS011;39629;51.400;5.494;2022-12-18T01:09:47;25.33;;;8.10;;
47896;SDS011;39629;51.400;5.494;2022-12-18T01:14:49;21.20;;;8.10;;
47896;SDS011;39629;51.400;5.494;2022-12-18T01:19:51;27.15;;;9.20;;
47896;SDS011;39629;51.400;5.494;2022-12-18T01:24:54;28.00;;;10.07;;
47896;SDS011;39629;51.400;5.494;2022-12-18T01:29:56;25.27;;;9.02;;
47896;SDS011;39629;51.400;5.494;2022-12-18T01:34:59;25.33;;;8.82;;
47896;SDS011;39629;51.400;5.494;2022-12-18T01:40:02;32.17;;;9.55;;
47896;SDS011;39629;51.400;5.494;2022-12-18T01:45:06;25.98;;;8.90;;
47896;SDS011;39629;51.400;5.494;2022-12-18T01:50:24;25.17;;;8.15;;
47896;SDS011;39629;51.400;5.494;2022-12-18T01:55:32;26.80;;;8.40;;
47896;SDS011;39629;51.400;5.494;2022-12-18T02:00:38;22.77;;;7.72;;
47896;SDS011;39629;51.400;5.494;2022-12-18T02:05:42;19.58;;;7.88;;
47896;SDS011;39629;51.400;5.494;2022-12-18T02:10:51;18.65;;;7.40;;
47896;SDS011;39629;51.400;5.494;2022-12-18T02:16:01;25.33;;;8.85;;
47896;SDS011;39629;51.400;5.494;2022-12-18T02:21:11;21.27;;;8.07;;
47896;SDS011;39629;51.400;5.494;2022-12-18T02:26:24;25.45;;;8.55;;
47896;SDS011;39629;51.400;5.494;2022-12-18T02:31:31;28.10;;;9.52;;
47896;SDS011;39629;51.400;5.494;2022-12-18T02:36:38;23.08;;;7.70;;
47896;SDS011;39629;51.400;5.494;2022-12-18T02:41:45;25.33;;;9.55;;
47896;SDS011;39629;51.400;5.494;2022-12-18T02:46:48;20.23;;;7.97;;
47896;SDS011;39629;51.400;5.494;2022-12-18T02:51:53;17.52;;;7.15;;
47896;SDS011;39629;51.400;5.494;2022-12-18T02:57:05;23.45;;;8.35;;
47896;SDS011;39629;51.400;5.494;2022-12-18T03:02:21;21.88;;;8.23;;
47896;SDS011;39629;51.400;5.494;2022-12-18T03:07:33;23.95;;;8.63;;
47896;SDS011;39629;51.400;5.494;2022-12-18T03:12:44;25.80;;;8.65;;
47896;SDS011;39629;51.400;5.494;2022-12-18T03:17:55;21.55;;;7.35;;
47896;SDS011;39629;51.400;5.494;2022-12-18T03:23:04;26.63;;;8.55;;
47896;SDS011;39629;51.400;5.494;2022-12-18T03:28:13;18.90;;;7.35;;
47896;SDS011;39629;51.400;5.494;2022-12-18T03:33:19;18.35;;;7.45;;
47896;SDS011;39629;51.400;5.494;2022-12-18T03:38:29;18.90;;;7.65;;
47896;SDS011;39629;51.400;5.494;2022-12-18T03:43:36;20.48;;;7.07;;
47896;SDS011;39629;51.400;5.494;2022-12-18T03:48:51;20.27;;;8.07;;
47896;SDS011;39629;51.400;5.494;2022-12-18T03:53:58;19.88;;;6.88;;
47896;SDS011;39629;51.400;5.494;2022-12-18T03:59:07;15.45;;;7.60;;
47896;SDS011;39629;51.400;5.494;2022-12-18T04:04:13;20.63;;;7.47;;
47896;SDS011;39629;51.400;5.494;2022-12-18T04:09:18;16.90;;;7.05;;
47896;SDS011;39629;51.400;5.494;2022-12-18T04:14:23;15.57;;;6.15;;
47896;SDS011;39629;51.400;5.494;2022-12-18T04:19:29;15.32;;;5.65;;
47896;SDS011;39629;51.400;5.494;2022-12-18T04:24:32;17.33;;;6.30;;
47896;SDS011;39629;51.400;5.494;2022-12-18T04:29:45;15.55;;;6.00;;
47896;SDS011;39629;51.400;5.494;2022-12-18T04:34:46;17.30;;;6.82;;
47896;SDS011;39629;51.400;5.494;2022-12-18T04:39:49;17.30;;;6.93;;
47896;SDS011;39629;51.400;5.494;2022-12-18T04:45:00;16.30;;;5.55;;
47896;SDS011;39629;51.400;5.494;2022-12-18T04:50:02;17.20;;;7.22;;
47896;SDS011;39629;51.400;5.494;2022-12-18T04:55:04;21.85;;;7.03;;
47896;SDS011;39629;51.400;5.494;2022-12-18T05:00:08;14.50;;;5.90;;
47896;SDS011;39629;51.400;5.494;2022-12-18T05:05:11;15.63;;;5.88;;
47896;SDS011;39629;51.400;5.494;2022-12-18T05:10:13;13.90;;;6.07;;
47896;SDS011;39629;51.400;5.494;2022-12-18T05:15:16;16.55;;;5.72;;
47896;SDS011;39629;51.400;5.494;2022-12-18T05:20:18;14.68;;;5.50;;
47896;SDS011;39629;51.400;5.494;2022-12-18T05:25:20;15.25;;;5.95;;
47896;SDS011;39629;51.400;5.494;2022-12-18T05:30:23;15.77;;;5.75;;
47896;SDS011;39629;51.400;5.494;2022-12-18T05:35:25;17.92;;;6.32;;
47896;SDS011;39629;51.400;5.494;2022-12-18T05:40:26;19.10;;;5.85;;
47896;SDS011;39629;51.400;5.494;2022-12-18T05:45:29;13.80;;;5.60;;
47896;SDS011;39629;51.400;5.494;2022-12-18T05:50:33;10.82;;;4.55;;
47896;SDS011;39629;51.400;5.494;2022-12-18T05:55:36;18.60;;;5.80;;
47896;SDS011;39629;51.400;5.494;2022-12-18T06:00:41;16.27;;;6.78;;
47896;SDS011;39629;51.400;5.494;2022-12-18T06:05:45;15.95;;;5.72;;
47896;SDS011;39629;51.400;5.494;2022-12-18T06:10:49;16.00;;;5.85;;
47896;SDS011;39629;51.400;5.494;2022-12-18T06:15:54;12.32;;;5.22;;
47896;SDS011;39629;51.400;5.494;2022-12-18T06:20:55;15.68;;;5.35;;
47896;SDS011;39629;51.400;5.494;2022-12-18T06:25:58;18.58;;;6.22;;
47896;SDS011;39629;51.400;5.494;2022-12-18T06:31:05;15.48;;;5.78;;
47896;SDS011;39629;51.400;5.494;2022-12-18T06:36:08;15.93;;;6.15;;
47896;SDS011;39629;51.400;5.494;2022-12-18T06:41:12;15.02;;;6.22;;
47896;SDS011;39629;51.400;5.494;2022-12-18T06:46:16;15.27;;;5.32;;
47896;SDS011;39629;51.400;5.494;2022-12-18T06:51:18;13.57;;;5.65;;
47896;SDS011;39629;51.400;5.494;2022-12-18T06:56:21;17.75;;;6.00;;
47896;SDS011;39629;51.400;5.494;2022-12-18T07:01:24;14.10;;;5.43;;
47896;SDS011;39629;51.400;5.494;2022-12-18T07:06:26;19.20;;;6.70;;
47896;SDS011;39629;51.400;5.494;2022-12-18T07:11:27;16.38;;;6.05;;
47896;SDS011;39629;51.400;5.494;2022-12-18T07:16:30;14.55;;;6.50;;
47896;SDS011;39629;51.400;5.494;2022-12-18T07:21:32;15.43;;;5.70;;
47896;SDS011;39629;51.400;5.494;2022-12-18T07:26:34;15.15;;;5.65;;
47896;SDS011;39629;51.400;5.494;2022-12-18T07:31:37;15.52;;;6.18;;
47896;SDS011;39629;51.400;5.494;2022-12-18T07:36:38;17.83;;;6.25;;
47896;SDS011;39629;51.400;5.494;2022-12-18T07:41:40;16.95;;;6.32;;
47896;SDS011;39629;51.400;5.494;2022-12-18T07:46:47;16.65;;;7.07;;
47896;SDS011;39629;51.400;5.494;2022-12-18T07:51:48;20.42;;;6.78;;
47896;SDS011;39629;51.400;5.494;2022-12-18T07:56:50;13.93;;;5.80;;
47896;SDS011;39629;51.400;5.494;2022-12-18T08:01:54;15.70;;;6.25;;
47896;SDS011;39629;51.400;5.494;2022-12-18T08:06:55;16.50;;;6.25;;
47896;SDS011;39629;51.400;5.494;2022-12-18T08:11:57;13.43;;;5.50;;
47896;SDS011;39629;51.400;5.494;2022-12-18T08:17:00;12.57;;;5.05;;
47896;SDS011;39629;51.400;5.494;2022-12-18T08:22:02;17.92;;;6.93;;
47896;SDS011;39629;51.400;5.494;2022-12-18T08:27:03;18.25;;;6.65;;
47896;SDS011;39629;51.400;5.494;2022-12-18T08:32:06;21.80;;;7.65;;
47896;SDS011;39629;51.400;5.494;2022-12-18T08:37:08;17.60;;;6.88;;
47896;SDS011;39629;51.400;5.494;2022-12-18T08:42:10;20.83;;;7.85;;
47896;SDS011;39629;51.400;5.494;2022-12-18T08:47:30;14.82;;;7.07;;
47896;SDS011;39629;51.400;5.494;2022-12-18T08:52:31;23.67;;;7.85;;
47896;SDS011;39629;51.400;5.494;2022-12-18T08:57:33;18.58;;;7.80;;
47896;SDS011;39629;51.400;5.494;2022-12-18T09:02:36;21.05;;;7.72;;
47896;SDS011;39629;51.400;5.494;2022-12-18T09:07:38;22.80;;;8.32;;
47896;SDS011;39629;51.400;5.494;2022-12-18T09:12:40;21.13;;;8.68;;
47896;SDS011;39629;51.400;5.494;2022-12-18T09:17:43;15.80;;;6.32;;
47896;SDS011;39629;51.400;5.494;2022-12-18T09:22:45;23.83;;;8.65;;
47896;SDS011;39629;51.400;5.494;2022-12-18T09:27:46;21.88;;;9.20;;
47896;SDS011;39629;51.400;5.494;2022-12-18T09:32:49;17.48;;;6.70;;
47896;SDS011;39629;51.400;5.494;2022-12-18T09:37:54;20.60;;;8.63;;
47896;SDS011;39629;51.400;5.494;2022-12-18T09:42:57;27.40;;;9.77;;
47896;SDS011;39629;51.400;5.494;2022-12-18T09:48:04;19.88;;;8.10;;
47896;SDS011;39629;51.400;5.494;2022-12-18T09:53:09;25.75;;;9.43;;
47896;SDS011;39629;51.400;5.494;2022-12-18T09:58:18;16.52;;;6.45;;
47896;SDS011;39629;51.400;5.494;2022-12-18T10:03:27;20.98;;;7.10;;
47896;SDS011;39629;51.400;5.494;2022-12-18T10:08:32;25.70;;;10.40;;
47896;SDS011;39629;51.400;5.494;2022-12-18T10:13:38;23.98;;;10.10;;
47896;SDS011;39629;51.400;5.494;2022-12-18T10:18:55;22.00;;;9.82;;
47896;SDS011;39629;51.400;5.494;2022-12-18T10:24:09;20.63;;;8.15;;
47896;SDS011;39629;51.400;5.494;2022-12-18T10:29:17;25.80;;;10.48;;
47896;SDS011;39629;51.400;5.494;2022-12-18T10:34:21;17.70;;;8.00;;
47896;SDS011;39629;51.400;5.494;2022-12-18T10:39:23;17.08;;;6.75;;
47896;SDS011;39629;51.400;5.494;2022-12-18T10:44:26;21.17;;;8.45;;
47896;SDS011;39629;51.400;5.494;2022-12-18T10:49:29;22.30;;;9.90;;
47896;SDS011;39629;51.400;5.494;2022-12-18T10:54:34;20.40;;;8.05;;
47896;SDS011;39629;51.400;5.494;2022-12-18T10:59:38;18.10;;;7.95;;
47896;SDS011;39629;51.400;5.494;2022-12-18T11:04:53;25.27;;;9.90;;
47896;SDS011;39629;51.400;5.494;2022-12-18T11:10:15;12.82;;;5.97;;
47896;SDS011;39629;51.400;5.494;2022-12-18T11:15:19;18.17;;;7.40;;
47896;SDS011;39629;51.400;5.494;2022-12-18T11:20:26;16.17;;;6.35;;
47896;SDS011;39629;51.400;5.494;2022-12-18T11:25:32;28.65;;;10.88;;
47896;SDS011;39629;51.400;5.494;2022-12-18T11:30:35;16.25;;;7.55;;
47896;SDS011;39629;51.400;5.494;2022-12-18T11:35:40;18.58;;;7.80;;
47896;SDS011;39629;51.400;5.494;2022-12-18T11:40:47;18.58;;;8.55;;
47896;SDS011;39629;51.400;5.494;2022-12-18T11:45:54;23.40;;;9.95;;
47896;SDS011;39629;51.400;5.494;2022-12-18T11:51:02;20.23;;;9.07;;
47896;SDS011;39629;51.400;5.494;2022-12-18T11:56:15;21.75;;;9.32;;
47896;SDS011;39629;51.400;5.494;2022-12-18T12:01:34;23.95;;;9.60;;
47896;SDS011;39629;51.400;5.494;2022-12-18T12:06:48;21.85;;;9.40;;
47896;SDS011;39629;51.400;5.494;2022-12-18T12:12:01;22.83;;;9.00;;
47896;SDS011;39629;51.400;5.494;2022-12-18T12:17:12;23.17;;;8.85;;
47896;SDS011;39629;51.400;5.494;2022-12-18T12:22:27;16.13;;;7.05;;
47896;SDS011;39629;51.400;5.494;2022-12-18T12:27:38;22.67;;;9.40;;
47896;SDS011;39629;51.400;5.494;2022-12-18T12:32:55;21.25;;;9.07;;
47896;SDS011;39629;51.400;5.494;2022-12-18T12:38:12;20.50;;;8.90;;
47896;SDS011;39629;51.400;5.494;2022-12-18T12:43:22;21.63;;;8.57;;
47896;SDS011;39629;51.400;5.494;2022-12-18T12:48:33;23.90;;;9.48;;
47896;SDS011;39629;51.400;5.494;2022-12-18T12:53:41;23.58;;;9.05;;
47896;SDS011;39629;51.400;5.494;2022-12-18T12:58:45;19.92;;;8.27;;
47896;SDS011;39629;51.400;5.494;2022-12-18T13:03:55;22.50;;;8.80;;
47896;SDS011;39629;51.400;5.494;2022-12-18T13:09:05;21.38;;;9.15;;
47896;SDS011;39629;51.400;5.494;2022-12-18T13:14:10;20.65;;;8.85;;
47896;SDS011;39629;51.400;5.494;2022-12-18T13:19:23;20.67;;;8.02;;
47896;SDS011;39629;51.400;5.494;2022-12-18T13:24:30;20.40;;;8.32;;
47896;SDS011;39629;51.400;5.494;2022-12-18T13:29:42;18.17;;;7.80;;
47896;SDS011;39629;51.400;5.494;2022-12-18T13:34:45;23.00;;;8.48;;
47896;SDS011;39629;51.400;5.494;2022-12-18T13:39:48;19.88;;;8.73;;
47896;SDS011;39629;51.400;5.494;2022-12-18T13:44:50;19.38;;;8.35;;
47896;SDS011;39629;51.400;5.494;2022-12-18T13:49:52;20.75;;;9.18;;
47896;SDS011;39629;51.400;5.494;2022-12-18T13:54:56;21.17;;;9.15;;
47896;SDS011;39629;51.400;5.494;2022-12-18T14:00:14;19.50;;;9.38;;
47896;SDS011;39629;51.400;5.494;2022-12-18T14:05:25;21.42;;;9.35;;
47896;SDS011;39629;51.400;5.494;2022-12-18T14:10:31;23.40;;;9.18;;
47896;SDS011;39629;51.400;5.494;2022-12-18T14:15:34;22.97;;;9.43;;
47896;SDS011;39629;51.400;5.494;2022-12-18T14:25:45;19.17;;;8.80;;
47896;SDS011;39629;51.400;5.494;2022-12-18T14:30:47;17.85;;;8.27;;
47896;SDS011;39629;51.400;5.494;2022-12-18T14:35:54;20.17;;;9.07;;
47896;SDS011;39629;51.400;5.494;2022-12-18T14:41:02;20.48;;;9.38;;
47896;SDS011;39629;51.400;5.494;2022-12-18T14:46:05;21.60;;;9.48;;
47896;SDS011;39629;51.400;5.494;2022-12-18T14:51:27;22.33;;;8.80;;
47896;SDS011;39629;51.400;5.494;2022-12-18T14:56:32;17.42;;;7.72;;
47896;SDS011;39629;51.400;5.494;2022-12-18T15:01:36;21.55;;;8.57;;
47896;SDS011;39629;51.400;5.494;2022-12-18T15:11:46;34.30;;;12.95;;
47896;SDS011;39629;51.400;5.494;2022-12-18T15:16:49;36.05;;;14.13;;
47896;SDS011;39629;51.400;5.494;2022-12-18T15:21:52;31.73;;;13.55;;
47896;SDS011;39629;51.400;5.494;2022-12-18T15:26:55;24.52;;;11.60;;
47896;SDS011;39629;51.400;5.494;2022-12-18T15:32:00;19.40;;;9.25;;
47896;SDS011;39629;51.400;5.494;2022-12-18T15:37:04;20.95;;;9.52;;
47896;SDS011;39629;51.400;5.494;2022-12-18T15:42:08;24.52;;;10.88;;
47896;SDS011;39629;51.400;5.494;2022-12-18T15:47:28;35.13;;;13.52;;
47896;SDS011;39629;51.400;5.494;2022-12-18T15:52:30;27.25;;;11.50;;
47896;SDS011;39629;51.400;5.494;2022-12-18T15:57:38;29.73;;;11.52;;
47896;SDS011;39629;51.400;5.494;2022-12-18T16:02:40;28.15;;;12.02;;
47896;SDS011;39629;51.400;5.494;2022-12-18T16:07:41;21.90;;;7.82;;
47896;SDS011;39629;51.400;5.494;2022-12-18T16:12:44;30.55;;;13.15;;
47896;SDS011;39629;51.400;5.494;2022-12-18T16:17:46;18.80;;;7.85;;
47896;SDS011;39629;51.400;5.494;2022-12-18T16:22:48;25.70;;;10.70;;
47896;SDS011;39629;51.400;5.494;2022-12-18T16:27:52;44.30;;;14.68;;
47896;SDS011;39629;51.400;5.494;2022-12-18T16:32:55;44.33;;;13.98;;
47896;SDS011;39629;51.400;5.494;2022-12-18T16:37:57;30.98;;;11.57;;
47896;SDS011;39629;51.400;5.494;2022-12-18T16:43:00;35.78;;;13.43;;
47896;SDS011;39629;51.400;5.494;2022-12-18T16:48:01;24.67;;;9.90;;
47896;SDS011;39629;51.400;5.494;2022-12-18T16:53:03;23.67;;;10.45;;
47896;SDS011;39629;51.400;5.494;2022-12-18T16:58:06;40.38;;;12.93;;
47896;SDS011;39629;51.400;5.494;2022-12-18T17:03:08;30.48;;;11.77;;
47896;SDS011;39629;51.400;5.494;2022-12-18T17:08:09;42.05;;;14.63;;
47896;SDS011;39629;51.400;5.494;2022-12-18T17:13:12;29.80;;;12.43;;
47896;SDS011;39629;51.400;5.494;2022-12-18T17:18:14;31.92;;;11.73;;
47896;SDS011;39629;51.400;5.494;2022-12-18T17:23:15;24.55;;;9.32;;
47896;SDS011;39629;51.400;5.494;2022-12-18T17:28:18;24.65;;;10.65;;
47896;SDS011;39629;51.400;5.494;2022-12-18T17:33:21;32.00;;;13.33;;
47896;SDS011;39629;51.400;5.494;2022-12-18T17:38:24;22.20;;;10.02;;
47896;SDS011;39629;51.400;5.494;2022-12-18T17:43:27;22.10;;;9.68;;
47896;SDS011;39629;51.400;5.494;2022-12-18T17:48:28;24.67;;;10.20;;
47896;SDS011;39629;51.400;5.494;2022-12-18T17:53:30;23.95;;;10.13;;
47896;SDS011;39629;51.400;5.494;2022-12-18T17:58:35;26.27;;;11.18;;
47896;SDS011;39629;51.400;5.494;2022-12-18T18:03:37;24.33;;;11.15;;
47896;SDS011;39629;51.400;5.494;2022-12-18T18:08:40;26.52;;;11.48;;
47896;SDS011;39629;51.400;5.494;2022-12-18T18:13:43;23.25;;;10.13;;
47896;SDS011;39629;51.400;5.494;2022-12-18T18:19:04;26.50;;;10.73;;
47896;SDS011;39629;51.400;5.494;2022-12-18T18:24:07;26.60;;;11.43;;
47896;SDS011;39629;51.400;5.494;2022-12-18T18:29:12;21.65;;;9.85;;
47896;SDS011;39629;51.400;5.494;2022-12-18T18:34:15;23.58;;;9.82;;
47896;SDS011;39629;51.400;5.494;2022-12-18T18:39:19;30.67;;;12.43;;
47896;SDS011;39629;51.400;5.494;2022-12-18T18:44:22;28.15;;;11.07;;
47896;SDS011;39629;51.400;5.494;2022-12-18T18:49:24;26.50;;;10.68;;
47896;SDS011;39629;51.400;5.494;2022-12-18T18:54:27;29.00;;;11.63;;
47896;SDS011;39629;51.400;5.494;2022-12-18T18:59:31;23.92;;;9.95;;
47896;SDS011;39629;51.400;5.494;2022-12-18T19:04:33;25.92;;;10.35;;
47896;SDS011;39629;51.400;5.494;2022-12-18T19:09:35;29.65;;;11.93;;
47896;SDS011;39629;51.400;5.494;2022-12-18T19:14:38;26.58;;;11.38;;
47896;SDS011;39629;51.400;5.494;2022-12-18T19:19:40;22.73;;;9.15;;
47896;SDS011;39629;51.400;5.494;2022-12-18T19:24:42;26.98;;;11.10;;
47896;SDS011;39629;51.400;5.494;2022-12-18T19:29:45;26.40;;;10.77;;
47896;SDS011;39629;51.400;5.494;2022-12-18T19:34:49;29.52;;;12.13;;
47896;SDS011;39629;51.400;5.494;2022-12-18T19:39:53;24.90;;;10.77;;
47896;SDS011;39629;51.400;5.494;2022-12-18T19:44:57;27.73;;;11.32;;
47896;SDS011;39629;51.400;5.494;2022-12-18T19:49:58;23.33;;;10.25;;
47896;SDS011;39629;51.400;5.494;2022-12-18T19:55:00;27.35;;;11.05;;
47896;SDS011;39629;51.400;5.494;2022-12-18T20:00:03;24.52;;;10.70;;
47896;SDS011;39629;51.400;5.494;2022-12-18T20:05:12;26.15;;;10.50;;
47896;SDS011;39629;51.400;5.494;2022-12-18T20:10:14;51.80;;;19.25;;
47896;SDS011;39629;51.400;5.494;2022-12-18T20:15:17;21.13;;;8.15;;
47896;SDS011;39629;51.400;5.494;2022-12-18T20:20:18;25.00;;;10.50;;
47896;SDS011;39629;51.400;5.494;2022-12-18T20:25:20;26.05;;;9.95;;
47896;SDS011;39629;51.400;5.494;2022-12-18T20:30:23;24.55;;;9.75;;
47896;SDS011;39629;51.400;5.494;2022-12-18T20:35:25;22.77;;;10.20;;
47896;SDS011;39629;51.400;5.494;2022-12-18T20:40:27;24.33;;;9.80;;
47896;SDS011;39629;51.400;5.494;2022-12-18T20:45:30;16.90;;;7.13;;
47896;SDS011;39629;51.400;5.494;2022-12-18T20:50:31;20.58;;;9.30;;
47896;SDS011;39629;51.400;5.494;2022-12-18T20:55:33;24.00;;;9.57;;
47896;SDS011;39629;51.400;5.494;2022-12-18T21:00:36;26.13;;;11.73;;
47896;SDS011;39629;51.400;5.494;2022-12-18T21:05:37;30.92;;;12.55;;
47896;SDS011;39629;51.400;5.494;2022-12-18T21:10:39;31.13;;;11.18;;
47896;SDS011;39629;51.400;5.494;2022-12-18T21:15:42;27.38;;;11.43;;
47896;SDS011;39629;51.400;5.494;2022-12-18T21:20:44;17.10;;;7.90;;
47896;SDS011;39629;51.400;5.494;2022-12-18T21:25:46;24.92;;;10.60;;
47896;SDS011;39629;51.400;5.494;2022-12-18T21:30:49;22.10;;;8.05;;
47896;SDS011;39629;51.400;5.494;2022-12-18T21:35:50;20.30;;;8.45;;
47896;SDS011;39629;51.400;5.494;2022-12-18T21:40:52;19.98;;;8.13;;
47896;SDS011;39629;51.400;5.494;2022-12-18T21:45:58;26.02;;;10.73;;
47896;SDS011;39629;51.400;5.494;2022-12-18T21:50:59;23.20;;;9.88;;
47896;SDS011;39629;51.400;5.494;2022-12-18T21:56:01;19.13;;;7.95;;
47896;SDS011;39629;51.400;5.494;2022-12-18T22:01:04;24.63;;;10.65;;
47896;SDS011;39629;51.400;5.494;2022-12-18T22:06:06;21.80;;;8.05;;
47896;SDS011;39629;51.400;5.494;2022-12-18T22:11:08;13.57;;;6.10;;
47896;SDS011;39629;51.400;5.494;2022-12-18T22:16:13;18.02;;;8.18;;
47896;SDS011;39629;51.400;5.494;2022-12-18T22:21:20;27.30;;;11.25;;
47896;SDS011;39629;51.400;5.494;2022-12-18T22:26:24;22.85;;;9.77;;
47896;SDS011;39629;51.400;5.494;2022-12-18T22:31:27;24.45;;;9.30;;
47896;SDS011;39629;51.400;5.494;2022-12-18T22:36:33;25.52;;;10.90;;
47896;SDS011;39629;51.400;5.494;2022-12-18T22:41:36;24.90;;;10.68;;
47896;SDS011;39629;51.400;5.494;2022-12-18T22:46:39;27.00;;;11.88;;
47896;SDS011;39629;51.400;5.494;2022-12-18T22:51:44;25.77;;;10.48;;
47896;SDS011;39629;51.400;5.494;2022-12-18T22:56:47;23.48;;;10.35;;
47896;SDS011;39629;51.400;5.494;2022-12-18T23:01:50;27.73;;;11.23;;
47896;SDS011;39629;51.400;5.494;2022-12-18T23:06:52;20.13;;;9.48;;
47896;SDS011;39629;51.400;5.494;2022-12-18T23:11:54;28.65;;;10.43;;
47896;SDS011;39629;51.400;5.494;2022-12-18T23:16:57;23.60;;;10.27;;
47896;SDS011;39629;51.400;5.494;2022-12-18T23:21:59;24.35;;;9.85;;
47896;SDS011;39629;51.400;5.494;2022-12-18T23:27:01;24.02;;;9.60;;
47896;SDS011;39629;51.400;5.494;2022-12-18T23:32:04;18.27;;;8.50;;
47896;SDS011;39629;51.400;5.494;2022-12-18T23:37:05;25.35;;;10.32;;
47896;SDS011;39629;51.400;5.494;2022-12-18T23:42:07;24.80;;;10.25;;
47896;SDS011;39629;51.400;5.494;2022-12-18T23:47:10;25.13;;;10.52;;
47896;SDS011;39629;51.400;5.494;2022-12-18T23:52:11;28.15;;;10.05;;
47896;SDS011;39629;51.400;5.494;2022-12-18T23:57:13;27.60;;;10.80;;
